Details for QantasLink at YMHB




Go Back


Latest METAR
Local Time

YMHB 022130Z 33006KT 9999 FEW040 SCT045 BKN300 15/10 Q1002 RF00.0/039.8
03/04/2020, 09:06:03

Description
Results
QantasLink Logo
Number of Pilots based at YMHB
0 Pilots Based here
Number of QantasLink Flights Departed from YMHB
0 Flights Departed
Number of QantasLink Flights Arrived at YMHB
0 Flights Arrived
Number of QantasLink Schedules Departing from YMHB
0 Schedules
Number of QantasLink Schedules Arriving at YMHB
0 Schedules
Number of QantasLink Schedules Departing from YMHB availible today
0 Schedules Today
Number of QantasLink Schedules Arriving at YMHB availible today
0 Schedules Today
Average Landing Rate at YMHB
-101 fpm
QantasLink Average Landing Rate at YMHB
0 fpm
Total Fuel Purchased at YMHB by QantasLink
0.00 kgs / 0.00 lbs

Pilots Based at YMHB


Pilot ID
Pilot Name
Pilot Rank
No. of Flights
No. of Flying Hours
There are no pilots assigned to this hub!   Will you be the first?